sensor_id;sensor_type;location;lat;lon;timestamp;pressure;altitude;pressure_sealevel;temperature;humidity
30744;BME280;17486;46.738;7.622;2023-03-12T00:02:03;94867.38;;;6.00;67.87
30744;BME280;17486;46.738;7.622;2023-03-12T00:04:30;94855.59;;;5.92;68.12
30744;BME280;17486;46.738;7.622;2023-03-12T00:06:56;94868.56;;;5.91;68.63
30744;BME280;17486;46.738;7.622;2023-03-12T00:09:21;94875.38;;;5.92;67.90
30744;BME280;17486;46.738;7.622;2023-03-12T00:11:47;94860.19;;;5.84;68.34
30744;BME280;17486;46.738;7.622;2023-03-12T00:14:13;94874.56;;;5.91;68.49
30744;BME280;17486;46.738;7.622;2023-03-12T00:16:38;94876.06;;;5.97;67.84
30744;BME280;17486;46.738;7.622;2023-03-12T00:19:04;94881.34;;;5.94;68.13
30744;BME280;17486;46.738;7.622;2023-03-12T00:21:29;94872.94;;;5.89;68.60
30744;BME280;17486;46.738;7.622;2023-03-12T00:23:54;94875.38;;;5.92;67.84
30744;BME280;17486;46.738;7.622;2023-03-12T00:26:20;94856.22;;;5.75;68.61
30744;BME280;17486;46.738;7.622;2023-03-12T00:28:48;94883.38;;;5.86;68.84
30744;BME280;17486;46.738;7.622;2023-03-12T00:31:18;94896.81;;;5.94;68.10
30744;BME280;17486;46.738;7.622;2023-03-12T00:33:44;94880.72;;;5.87;68.42
30744;BME280;17486;46.738;7.622;2023-03-12T00:36:10;94863.38;;;5.67;68.21
30744;BME280;17486;46.738;7.622;2023-03-12T00:38:36;94864.13;;;5.71;68.34
30744;BME280;17486;46.738;7.622;2023-03-12T00:41:01;94883.03;;;5.71;68.90
30744;BME280;17486;46.738;7.622;2023-03-12T00:43:27;94881.09;;;5.76;68.40
30744;BME280;17486;46.738;7.622;2023-03-12T00:45:52;94822.56;;;5.31;69.20
30744;BME280;17486;46.738;7.622;2023-03-12T00:48:18;94898.47;;;5.73;69.31
30744;BME280;17486;46.738;7.622;2023-03-12T00:50:43;94821.00;;;5.27;69.26
30744;BME280;17486;46.738;7.622;2023-03-12T00:53:08;94908.84;;;5.71;69.27
30744;BME280;17486;46.738;7.622;2023-03-12T00:55:34;94837.91;;;5.34;69.39
30744;BME280;17486;46.738;7.622;2023-03-12T00:57:59;94918.16;;;5.75;69.27
30744;BME280;17486;46.738;7.622;2023-03-12T01:00:25;94904.50;;;5.72;69.17
30744;BME280;17486;46.738;7.622;2023-03-12T01:02:50;94908.84;;;5.71;69.55
30744;BME280;17486;46.738;7.622;2023-03-12T01:05:16;94904.72;;;5.65;69.34
30744;BME280;17486;46.738;7.622;2023-03-12T01:07:41;94849.94;;;5.35;69.27
30744;BME280;17486;46.738;7.622;2023-03-12T01:10:08;94899.63;;;5.64;68.99
30744;BME280;17486;46.738;7.622;2023-03-12T01:12:33;94813.00;;;5.09;69.34
30744;BME280;17486;46.738;7.622;2023-03-12T01:14:59;94846.09;;;5.22;69.09
30744;BME280;17486;46.738;7.622;2023-03-12T01:17:24;94890.09;;;5.42;69.95
30744;BME280;17486;46.738;7.622;2023-03-12T01:19:50;94852.47;;;5.11;69.60
30744;BME280;17486;46.738;7.622;2023-03-12T01:22:15;94904.50;;;5.48;69.42
30744;BME280;17486;46.738;7.622;2023-03-12T01:24:40;94838.00;;;5.07;70.17
30744;BME280;17486;46.738;7.622;2023-03-12T01:27:06;94890.22;;;5.38;69.84
30744;BME280;17486;46.738;7.622;2023-03-12T01:29:31;94892.44;;;5.23;70.05
30744;BME280;17486;46.738;7.622;2023-03-12T01:31:56;94835.78;;;4.96;69.91
30744;BME280;17486;46.738;7.622;2023-03-12T01:34:22;94893.56;;;5.41;69.99
30744;BME280;17486;46.738;7.622;2023-03-12T01:36:47;94834.69;;;5.04;69.92
30744;BME280;17486;46.738;7.622;2023-03-12T01:39:13;94833.75;;;5.06;70.58
30744;BME280;17486;46.738;7.622;2023-03-12T01:41:39;94912.06;;;5.53;69.90
30744;BME280;17486;46.738;7.622;2023-03-12T01:44:06;94824.31;;;5.05;70.92
30744;BME280;17486;46.738;7.622;2023-03-12T01:46:39;94912.06;;;5.53;70.32
30744;BME280;17486;46.738;7.622;2023-03-12T01:52:03;94836.88;;;5.14;70.73
30744;BME280;17486;46.738;7.622;2023-03-12T01:54:33;94836.25;;;5.08;71.53
30744;BME280;17486;46.738;7.622;2023-03-12T01:57:01;94902.75;;;5.48;71.54
30744;BME280;17486;46.738;7.622;2023-03-12T01:59:40;94916.31;;;5.54;70.73
30744;BME280;17486;46.738;7.622;2023-03-12T02:02:08;94929.63;;;5.67;71.63
30744;BME280;17486;46.738;7.622;2023-03-12T02:04:35;94862.34;;;5.24;71.90
30744;BME280;17486;46.738;7.622;2023-03-12T02:07:11;94923.09;;;5.56;72.11
30744;BME280;17486;46.738;7.622;2023-03-12T02:09:42;94894.25;;;5.46;72.06
30744;BME280;17486;46.738;7.622;2023-03-12T02:12:09;94877.59;;;5.30;71.72
30744;BME280;17486;46.738;7.622;2023-03-12T02:14:35;94885.13;;;5.36;71.41
30744;BME280;17486;46.738;7.622;2023-03-12T02:17:02;94931.66;;;5.58;71.49
30744;BME280;17486;46.738;7.622;2023-03-12T02:22:10;94908.25;;;5.63;71.78
30744;BME280;17486;46.738;7.622;2023-03-12T02:27:35;94898.19;;;5.57;71.90
30744;BME280;17486;46.738;7.622;2023-03-12T02:30:03;94924.75;;;5.82;71.43
30744;BME280;17486;46.738;7.622;2023-03-12T02:32:33;94929.81;;;5.86;72.05
30744;BME280;17486;46.738;7.622;2023-03-12T02:35:01;94907.09;;;5.72;72.21
30744;BME280;17486;46.738;7.622;2023-03-12T02:37:27;94872.69;;;5.47;71.96
30744;BME280;17486;46.738;7.622;2023-03-12T02:40:10;94938.06;;;5.72;72.38
30744;BME280;17486;46.738;7.622;2023-03-12T02:42:38;94954.16;;;5.78;72.16
30744;BME280;17486;46.738;7.622;2023-03-12T02:45:04;94877.41;;;5.36;71.91
30744;BME280;17486;46.738;7.622;2023-03-12T02:47:29;94939.63;;;5.76;72.25
30744;BME280;17486;46.738;7.622;2023-03-12T02:49:55;94865.13;;;5.43;71.66
30744;BME280;17486;46.738;7.622;2023-03-12T02:52:20;94924.75;;;5.82;71.71
30744;BME280;17486;46.738;7.622;2023-03-12T02:54:45;94957.41;;;5.84;72.39
30744;BME280;17486;46.738;7.622;2023-03-12T02:57:11;94939.75;;;5.73;72.03
30744;BME280;17486;46.738;7.622;2023-03-12T02:59:36;94953.34;;;5.76;72.70
30744;BME280;17486;46.738;7.622;2023-03-12T03:02:02;94885.53;;;5.49;72.44
30744;BME280;17486;46.738;7.622;2023-03-12T03:04:29;94945.31;;;5.86;72.52
30744;BME280;17486;46.738;7.622;2023-03-12T03:06:55;94959.31;;;5.78;72.40
30744;BME280;17486;46.738;7.622;2023-03-12T03:09:20;94904.66;;;5.67;72.55
30744;BME280;17486;46.738;7.622;2023-03-12T03:11:47;94938.56;;;5.81;73.10
30744;BME280;17486;46.738;7.622;2023-03-12T03:14:13;94939.19;;;5.88;72.83
30744;BME280;17486;46.738;7.622;2023-03-12T03:16:38;94937.56;;;5.86;72.44
30744;BME280;17486;46.738;7.622;2023-03-12T03:19:04;94946.88;;;5.90;72.46
30744;BME280;17486;46.738;7.622;2023-03-12T03:21:30;94876.00;;;5.51;72.01
30744;BME280;17486;46.738;7.622;2023-03-12T03:23:56;94865.06;;;5.44;72.07
30744;BME280;17486;46.738;7.622;2023-03-12T03:26:22;94925.78;;;5.78;73.18
30744;BME280;17486;46.738;7.622;2023-03-12T03:28:49;94863.50;;;5.40;73.02
30744;BME280;17486;46.738;7.622;2023-03-12T03:31:15;94861.13;;;5.34;74.02
30744;BME280;17486;46.738;7.622;2023-03-12T03:33:41;94852.88;;;5.24;74.16
30744;BME280;17486;46.738;7.622;2023-03-12T03:36:07;94816.94;;;5.20;73.26
30744;BME280;17486;46.738;7.622;2023-03-12T03:38:33;94795.59;;;5.16;73.49
30744;BME280;17486;46.738;7.622;2023-03-12T03:40:59;94804.84;;;5.22;72.97
30744;BME280;17486;46.738;7.622;2023-03-12T03:43:24;94826.72;;;5.35;73.82
30744;BME280;17486;46.738;7.622;2023-03-12T03:46:01;94811.56;;;5.26;73.90
30744;BME280;17486;46.738;7.622;2023-03-12T03:48:27;94866.59;;;5.74;74.17
30744;BME280;17486;46.738;7.622;2023-03-12T03:50:52;94866.53;;;5.75;73.65
30744;BME280;17486;46.738;7.622;2023-03-12T03:53:18;94801.66;;;5.39;73.94
30744;BME280;17486;46.738;7.622;2023-03-12T03:55:44;94885.38;;;5.77;74.26
30744;BME280;17486;46.738;7.622;2023-03-12T03:58:10;94887.28;;;5.72;74.45
30744;BME280;17486;46.738;7.622;2023-03-12T04:00:35;94850.06;;;5.56;74.53
30744;BME280;17486;46.738;7.622;2023-03-12T04:03:01;94796.13;;;5.26;74.31
30744;BME280;17486;46.738;7.622;2023-03-12T04:05:26;94798.41;;;5.34;74.20
30744;BME280;17486;46.738;7.622;2023-03-12T04:07:52;94887.59;;;5.39;75.50
30744;BME280;17486;46.738;7.622;2023-03-12T04:10:19;94879.78;;;5.42;75.20
30744;BME280;17486;46.738;7.622;2023-03-12T04:12:45;94822.75;;;5.01;75.52
30744;BME280;17486;46.738;7.622;2023-03-12T04:15:10;94884.75;;;5.47;75.50
30744;BME280;17486;46.738;7.622;2023-03-12T04:17:35;94879.25;;;5.56;75.68
30744;BME280;17486;46.738;7.622;2023-03-12T04:20:01;94826.25;;;5.24;75.28
30744;BME280;17486;46.738;7.622;2023-03-12T04:22:26;94877.53;;;5.57;74.83
30744;BME280;17486;46.738;7.622;2023-03-12T04:24:52;94787.69;;;5.21;75.48
30744;BME280;17486;46.738;7.622;2023-03-12T04:27:17;94878.78;;;5.70;74.92
30744;BME280;17486;46.738;7.622;2023-03-12T04:29:43;94802.16;;;5.25;74.87
30744;BME280;17486;46.738;7.622;2023-03-12T04:32:09;94872.25;;;5.60;74.83
30744;BME280;17486;46.738;7.622;2023-03-12T04:34:34;94790.84;;;5.29;74.44
30744;BME280;17486;46.738;7.622;2023-03-12T04:37:01;94801.06;;;5.32;74.87
30744;BME280;17486;46.738;7.622;2023-03-12T04:39:27;94871.91;;;5.69;74.30
30744;BME280;17486;46.738;7.622;2023-03-12T04:41:52;94865.97;;;5.67;74.87
30744;BME280;17486;46.738;7.622;2023-03-12T04:44:18;94866.91;;;5.64;74.57
30744;BME280;17486;46.738;7.622;2023-03-12T04:46:43;94860.81;;;5.67;74.25
30744;BME280;17486;46.738;7.622;2023-03-12T04:49:09;94862.94;;;5.56;75.48
30744;BME280;17486;46.738;7.622;2023-03-12T04:51:34;94855.88;;;5.61;75.22
30744;BME280;17486;46.738;7.622;2023-03-12T04:53:59;94786.00;;;5.20;75.88
30744;BME280;17486;46.738;7.622;2023-03-12T04:56:25;94862.34;;;5.73;75.18
30744;BME280;17486;46.738;7.622;2023-03-12T04:58:51;94804.91;;;5.44;75.08
30744;BME280;17486;46.738;7.622;2023-03-12T05:01:36;94790.34;;;5.43;75.15
30744;BME280;17486;46.738;7.622;2023-03-12T05:04:02;94859.22;;;5.87;74.96
30744;BME280;17486;46.738;7.622;2023-03-12T05:06:28;94806.16;;;5.57;74.86
30744;BME280;17486;46.738;7.622;2023-03-12T05:08:54;94847.56;;;5.76;74.75
30744;BME280;17486;46.738;7.622;2023-03-12T05:11:19;94918.59;;;6.10;74.25
30744;BME280;17486;46.738;7.622;2023-03-12T05:13:45;94918.59;;;6.10;73.77
30744;BME280;17486;46.738;7.622;2023-03-12T05:16:11;94919.41;;;6.12;73.36
30744;BME280;17486;46.738;7.622;2023-03-12T05:18:36;94914.41;;;6.08;74.17
30744;BME280;17486;46.738;7.622;2023-03-12T05:21:10;94914.47;;;6.06;74.07
30744;BME280;17486;46.738;7.622;2023-03-12T05:23:35;94858.91;;;5.72;74.34
30744;BME280;17486;46.738;7.622;2023-03-12T05:26:04;94867.25;;;5.79;74.15
30744;BME280;17486;46.738;7.622;2023-03-12T05:28:30;94940.88;;;6.13;74.15
30744;BME280;17486;46.738;7.622;2023-03-12T05:30:57;94942.28;;;6.22;73.65
30744;BME280;17486;46.738;7.622;2023-03-12T05:33:24;94901.09;;;5.95;73.79
30744;BME280;17486;46.738;7.622;2023-03-12T05:35:50;94884.25;;;5.85;73.25
30744;BME280;17486;46.738;7.622;2023-03-12T05:38:16;94873.75;;;5.65;73.51
30744;BME280;17486;46.738;7.622;2023-03-12T05:40:41;94878.53;;;5.76;72.64
30744;BME280;17486;46.738;7.622;2023-03-12T05:43:07;94950.38;;;6.12;73.38
30744;BME280;17486;46.738;7.622;2023-03-12T05:45:32;94934.41;;;6.03;73.20
30744;BME280;17486;46.738;7.622;2023-03-12T05:47:58;94967.44;;;6.17;72.99
30744;BME280;17486;46.738;7.622;2023-03-12T05:50:24;94912.66;;;5.85;73.34
30744;BME280;17486;46.738;7.622;2023-03-12T05:52:50;94976.72;;;6.22;72.83
30744;BME280;17486;46.738;7.622;2023-03-12T05:55:16;94977.41;;;6.26;72.62
30744;BME280;17486;46.738;7.622;2023-03-12T05:57:41;94990.25;;;6.29;72.67
30744;BME280;17486;46.738;7.622;2023-03-12T06:00:08;94914.16;;;5.90;72.69
30744;BME280;17486;46.738;7.622;2023-03-12T06:02:33;94909.06;;;5.89;72.62
30744;BME280;17486;46.738;7.622;2023-03-12T06:04:59;94969.88;;;6.21;72.42
30744;BME280;17486;46.738;7.622;2023-03-12T06:07:24;94923.38;;;5.97;72.26
30744;BME280;17486;46.738;7.622;2023-03-12T06:09:50;94984.81;;;6.35;71.86
30744;BME280;17486;46.738;7.622;2023-03-12T06:12:15;94985.00;;;6.30;72.41
30744;BME280;17486;46.738;7.622;2023-03-12T06:14:40;95000.31;;;6.35;72.17
30744;BME280;17486;46.738;7.622;2023-03-12T06:17:06;95003.50;;;6.43;72.01
30744;BME280;17486;46.738;7.622;2023-03-12T06:19:31;95006.28;;;6.37;71.73
30744;BME280;17486;46.738;7.622;2023-03-12T06:21:57;94993.50;;;6.34;71.61
30744;BME280;17486;46.738;7.622;2023-03-12T06:24:22;95013.16;;;6.38;71.62
30744;BME280;17486;46.738;7.622;2023-03-12T06:26:47;94940.53;;;6.00;71.58
30744;BME280;17486;46.738;7.622;2023-03-12T06:29:13;94996.69;;;6.41;71.68
30744;BME280;17486;46.738;7.622;2023-03-12T06:31:38;95010.22;;;6.47;71.85
30744;BME280;17486;46.738;7.622;2023-03-12T06:34:06;94965.88;;;6.12;71.40
30744;BME280;17486;46.738;7.622;2023-03-12T06:36:32;94969.28;;;6.13;71.97
30744;BME280;17486;46.738;7.622;2023-03-12T06:38:57;95021.38;;;6.48;72.09
30744;BME280;17486;46.738;7.622;2023-03-12T06:41:23;95018.25;;;6.40;71.92
30744;BME280;17486;46.738;7.622;2023-03-12T06:43:48;95020.78;;;6.41;71.80
30744;BME280;17486;46.738;7.622;2023-03-12T06:46:16;94978.66;;;6.16;72.25
30744;BME280;17486;46.738;7.622;2023-03-12T06:48:42;95071.00;;;6.58;71.86
30744;BME280;17486;46.738;7.622;2023-03-12T06:51:11;95048.69;;;6.55;72.13
30744;BME280;17486;46.738;7.622;2023-03-12T06:53:37;94988.91;;;6.19;72.19
30744;BME280;17486;46.738;7.622;2023-03-12T06:56:03;95003.31;;;6.24;71.28
30744;BME280;17486;46.738;7.622;2023-03-12T06:58:28;95054.81;;;6.53;71.95
30744;BME280;17486;46.738;7.622;2023-03-12T07:00:54;95066.59;;;6.60;71.84
30744;BME280;17486;46.738;7.622;2023-03-12T07:03:20;95077.94;;;6.56;71.75
30744;BME280;17486;46.738;7.622;2023-03-12T07:05:47;95060.59;;;6.59;71.66
30744;BME280;17486;46.738;7.622;2023-03-12T07:08:13;95040.88;;;6.57;71.89
30744;BME280;17486;46.738;7.622;2023-03-12T07:10:39;94997.31;;;6.24;71.39
30744;BME280;17486;46.738;7.622;2023-03-12T07:13:05;95010.78;;;6.32;71.35
30744;BME280;17486;46.738;7.622;2023-03-12T07:15:30;95076.78;;;6.64;71.43
30744;BME280;17486;46.738;7.622;2023-03-12T07:18:00;95068.78;;;6.71;71.58
30744;BME280;17486;46.738;7.622;2023-03-12T07:20:27;95067.81;;;6.73;71.62
30744;BME280;17486;46.738;7.622;2023-03-12T07:22:53;95072.97;;;6.73;72.19
30744;BME280;17486;46.738;7.622;2023-03-12T07:25:18;95029.81;;;6.53;71.64
30744;BME280;17486;46.738;7.622;2023-03-12T07:27:43;95010.22;;;6.47;71.77
30744;BME280;17486;46.738;7.622;2023-03-12T07:30:09;94997.47;;;6.43;71.99
30744;BME280;17486;46.738;7.622;2023-03-12T07:32:35;95069.16;;;6.84;72.21
30744;BME280;17486;46.738;7.622;2023-03-12T07:35:02;94997.72;;;6.37;71.67
30744;BME280;17486;46.738;7.622;2023-03-12T07:37:27;95049.78;;;6.72;71.59
30744;BME280;17486;46.738;7.622;2023-03-12T07:39:52;95063.00;;;6.88;72.10
30744;BME280;17486;46.738;7.622;2023-03-12T07:42:18;95084.00;;;7.02;71.59
30744;BME280;17486;46.738;7.622;2023-03-12T07:44:44;95041.00;;;6.76;71.76
30744;BME280;17486;46.738;7.622;2023-03-12T07:47:09;95087.78;;;7.16;71.65
30744;BME280;17486;46.738;7.622;2023-03-12T07:49:35;95080.03;;;7.16;71.07
30744;BME280;17486;46.738;7.622;2023-03-12T07:52:00;95024.75;;;6.96;70.73
30744;BME280;17486;46.738;7.622;2023-03-12T07:54:25;95021.50;;;6.91;70.96
30744;BME280;17486;46.738;7.622;2023-03-12T07:56:55;95096.06;;;7.24;70.75
30744;BME280;17486;46.738;7.622;2023-03-12T07:59:21;95094.50;;;7.20;70.79
30744;BME280;17486;46.738;7.622;2023-03-12T08:01:46;95073.81;;;7.20;71.98
30744;BME280;17486;46.738;7.622;2023-03-12T08:04:12;95093.00;;;7.36;71.93
30744;BME280;17486;46.738;7.622;2023-03-12T08:06:37;95048.63;;;7.25;71.99
30744;BME280;17486;46.738;7.622;2023-03-12T08:09:07;95075.44;;;7.44;72.61
30744;BME280;17486;46.738;7.622;2023-03-12T08:11:32;95087.69;;;7.61;72.41
30744;BME280;17486;46.738;7.622;2023-03-12T08:13:58;95029.84;;;7.20;71.11
30744;BME280;17486;46.738;7.622;2023-03-12T08:16:24;95060.38;;;7.54;71.24
30744;BME280;17486;46.738;7.622;2023-03-12T08:18:49;95009.56;;;7.31;71.45
30744;BME280;17486;46.738;7.622;2023-03-12T08:21:15;95078.06;;;7.86;71.32
30744;BME280;17486;46.738;7.622;2023-03-12T08:23:40;95011.03;;;7.59;70.69
30744;BME280;17486;46.738;7.622;2023-03-12T08:26:06;95100.41;;;8.09;70.45
30744;BME280;17486;46.738;7.622;2023-03-12T08:28:32;95061.97;;;8.00;70.22
30744;BME280;17486;46.738;7.622;2023-03-12T08:30:59;95050.78;;;7.99;69.82
30744;BME280;17486;46.738;7.622;2023-03-12T08:33:24;95032.38;;;7.85;69.78
30744;BME280;17486;46.738;7.622;2023-03-12T08:35:50;95034.00;;;7.67;69.69
30744;BME280;17486;46.738;7.622;2023-03-12T08:38:15;95080.41;;;7.92;70.30
30744;BME280;17486;46.738;7.622;2023-03-12T08:40:41;95079.31;;;7.97;70.11
30744;BME280;17486;46.738;7.622;2023-03-12T08:43:06;95090.13;;;8.07;69.83
30744;BME280;17486;46.738;7.622;2023-03-12T08:45:32;95079.13;;;8.02;69.60
30744;BME280;17486;46.738;7.622;2023-03-12T08:48:00;95017.50;;;7.69;69.69
30744;BME280;17486;46.738;7.622;2023-03-12T08:50:25;95088.25;;;8.11;69.67
30744;BME280;17486;46.738;7.622;2023-03-12T08:52:53;95062.94;;;7.97;69.86
30744;BME280;17486;46.738;7.622;2023-03-12T08:55:19;95031.09;;;7.74;69.94
30744;BME280;17486;46.738;7.622;2023-03-12T08:57:44;95039.63;;;7.76;70.20
30744;BME280;17486;46.738;7.622;2023-03-12T09:00:10;95099.25;;;8.16;70.09
30744;BME280;17486;46.738;7.622;2023-03-12T09:02:39;95032.50;;;7.82;70.56
30744;BME280;17486;46.738;7.622;2023-03-12T09:05:05;95073.16;;;8.00;70.51
30744;BME280;17486;46.738;7.622;2023-03-12T09:07:31;94981.13;;;7.52;70.71
30744;BME280;17486;46.738;7.622;2023-03-12T09:09:57;95037.09;;;7.75;70.72
30744;BME280;17486;46.738;7.622;2023-03-12T09:12:22;95100.94;;;8.17;70.72
30744;BME280;17486;46.738;7.622;2023-03-12T09:14:49;95105.06;;;8.21;71.02
30744;BME280;17486;46.738;7.622;2023-03-12T09:17:14;95027.25;;;7.83;70.82
30744;BME280;17486;46.738;7.622;2023-03-12T09:19:39;95065.78;;;8.11;71.01
30744;BME280;17486;46.738;7.622;2023-03-12T09:22:05;95111.00;;;8.45;70.35
30744;BME280;17486;46.738;7.622;2023-03-12T09:24:30;95101.97;;;8.34;69.63
30744;BME280;17486;46.738;7.622;2023-03-12T09:26:55;95058.91;;;8.10;69.87
30744;BME280;17486;46.738;7.622;2023-03-12T09:29:21;95041.31;;;7.98;69.43
30744;BME280;17486;46.738;7.622;2023-03-12T09:31:47;95119.63;;;8.44;70.09
30744;BME280;17486;46.738;7.622;2023-03-12T09:34:13;95124.59;;;8.51;70.03
30744;BME280;17486;46.738;7.622;2023-03-12T09:36:39;95102.88;;;8.53;70.47
30744;BME280;17486;46.738;7.622;2023-03-12T09:39:04;95127.91;;;8.73;70.20
30744;BME280;17486;46.738;7.622;2023-03-12T09:41:34;95043.59;;;8.45;70.82
30744;BME280;17486;46.738;7.622;2023-03-12T09:44:04;95100.88;;;8.98;70.29
30744;BME280;17486;46.738;7.622;2023-03-12T09:46:36;95118.06;;;9.20;69.13
30744;BME280;17486;46.738;7.622;2023-03-12T09:49:05;95059.59;;;8.93;69.20
30744;BME280;17486;46.738;7.622;2023-03-12T09:51:43;95047.94;;;9.02;69.12
30744;BME280;17486;46.738;7.622;2023-03-12T09:54:32;95122.03;;;9.46;68.70
30744;BME280;17486;46.738;7.622;2023-03-12T09:57:03;95063.78;;;9.15;68.01
30744;BME280;17486;46.738;7.622;2023-03-12T09:59:33;95062.81;;;9.35;68.64
30744;BME280;17486;46.738;7.622;2023-03-12T10:02:01;95128.31;;;9.96;68.63
30744;BME280;17486;46.738;7.622;2023-03-12T10:04:46;95097.13;;;9.96;67.80
30744;BME280;17486;46.738;7.622;2023-03-12T10:07:19;95173.50;;;10.46;65.23
30744;BME280;17486;46.738;7.622;2023-03-12T10:10:15;95173.28;;;10.51;64.92
30744;BME280;17486;46.738;7.622;2023-03-12T10:18:35;95157.91;;;10.97;65.08
30744;BME280;17486;46.738;7.622;2023-03-12T10:29:09;95169.47;;;10.91;63.08
30744;BME280;17486;46.738;7.622;2023-03-12T10:34:26;95169.28;;;10.78;61.84
30744;BME280;17486;46.738;7.622;2023-03-12T10:36:57;95124.03;;;10.48;63.01
30744;BME280;17486;46.738;7.622;2023-03-12T10:39:24;95187.59;;;10.93;63.62
30744;BME280;17486;46.738;7.622;2023-03-12T10:41:49;95174.44;;;10.96;63.30
30744;BME280;17486;46.738;7.622;2023-03-12T10:44:23;95135.53;;;10.77;63.30
30744;BME280;17486;46.738;7.622;2023-03-12T10:51:55;95185.56;;;11.32;61.29
30744;BME280;17486;46.738;7.622;2023-03-12T10:56:53;95189.88;;;11.33;62.07
30744;BME280;17486;46.738;7.622;2023-03-12T10:59:26;95136.59;;;11.22;61.77
30744;BME280;17486;46.738;7.622;2023-03-12T11:01:52;95189.91;;;11.65;60.81
30744;BME280;17486;46.738;7.622;2023-03-12T11:04:22;95200.22;;;11.98;61.41
30744;BME280;17486;46.738;7.622;2023-03-12T11:09:42;95132.28;;;12.01;60.66
30744;BME280;17486;46.738;7.622;2023-03-12T11:12:28;95143.75;;;12.29;61.40
30744;BME280;17486;46.738;7.622;2023-03-12T11:14:55;95203.41;;;12.94;60.96
30744;BME280;17486;46.738;7.622;2023-03-12T11:17:26;95152.97;;;13.08;59.89
30744;BME280;17486;46.738;7.622;2023-03-12T11:19:53;95212.56;;;13.59;58.41
30744;BME280;17486;46.738;7.622;2023-03-12T11:22:33;95150.88;;;13.57;57.34
30744;BME280;17486;46.738;7.622;2023-03-12T11:25:01;95149.63;;;13.77;56.98
30744;BME280;17486;46.738;7.622;2023-03-12T11:27:59;95207.84;;;14.21;55.04
30744;BME280;17486;46.738;7.622;2023-03-12T11:30:41;95143.88;;;13.99;54.91
30744;BME280;17486;46.738;7.622;2023-03-12T11:33:09;95163.38;;;14.21;54.66
30744;BME280;17486;46.738;7.622;2023-03-12T11:35:51;95221.06;;;14.72;54.71
30744;BME280;17486;46.738;7.622;2023-03-12T11:38:30;95152.44;;;14.41;51.28
30744;BME280;17486;46.738;7.622;2023-03-12T11:41:26;95162.28;;;14.51;52.98
30744;BME280;17486;46.738;7.622;2023-03-12T11:44:28;95209.06;;;14.96;52.73
30744;BME280;17486;46.738;7.622;2023-03-12T11:47:07;95209.59;;;15.01;52.67
30744;BME280;17486;46.738;7.622;2023-03-12T11:53:22;95206.50;;;14.55;50.88
30744;BME280;17486;46.738;7.622;2023-03-12T11:58:42;95205.59;;;14.15;51.53
30744;BME280;17486;46.738;7.622;2023-03-12T12:07:04;95168.56;;;13.81;52.29
30744;BME280;17486;46.738;7.622;2023-03-12T12:12:33;95187.16;;;14.43;58.04
30744;BME280;17486;46.738;7.622;2023-03-12T12:15:17;95181.50;;;14.77;57.32
30744;BME280;17486;46.738;7.622;2023-03-12T12:26:16;95168.34;;;16.40;49.57
30744;BME280;17486;46.738;7.622;2023-03-12T12:28:58;95153.41;;;16.65;49.60
30744;BME280;17486;46.738;7.622;2023-03-12T12:36:42;95128.72;;;16.79;43.38
30744;BME280;17486;46.738;7.622;2023-03-12T12:41:53;95123.94;;;16.72;43.54
30744;BME280;17486;46.738;7.622;2023-03-12T12:44:27;95074.84;;;16.50;41.60
30744;BME280;17486;46.738;7.622;2023-03-12T12:46:58;95093.00;;;16.65;40.88
30744;BME280;17486;46.738;7.622;2023-03-12T12:49:42;95132.47;;;16.99;41.88
30744;BME280;17486;46.738;7.622;2023-03-12T12:52:11;95086.75;;;16.90;42.04
30744;BME280;17486;46.738;7.622;2023-03-12T12:57:38;95118.75;;;16.95;39.05
30744;BME280;17486;46.738;7.622;2023-03-12T13:00:47;95138.78;;;16.85;39.98
30744;BME280;17486;46.738;7.622;2023-03-12T13:03:17;95098.25;;;16.53;39.92
30744;BME280;17486;46.738;7.622;2023-03-12T13:09:14;95139.03;;;16.46;39.88
30744;BME280;17486;46.738;7.622;2023-03-12T13:11:39;95113.59;;;16.35;40.50
30744;BME280;17486;46.738;7.622;2023-03-12T13:16:37;95129.28;;;16.48;39.66
30744;BME280;17486;46.738;7.622;2023-03-12T13:31:54;95084.72;;;16.35;38.63
30744;BME280;17486;46.738;7.622;2023-03-12T13:36:56;95122.72;;;16.54;37.03
30744;BME280;17486;46.738;7.622;2023-03-12T13:39:30;95132.53;;;16.63;37.93
30744;BME280;17486;46.738;7.622;2023-03-12T13:41:58;95126.31;;;16.64;36.88
30744;BME280;17486;46.738;7.622;2023-03-12T13:49:40;95061.25;;;16.56;43.69
30744;BME280;17486;46.738;7.622;2023-03-12T13:55:20;95101.06;;;17.31;37.92
30744;BME280;17486;46.738;7.622;2023-03-12T14:00:25;95111.59;;;17.31;34.72
30744;BME280;17486;46.738;7.622;2023-03-12T14:02:58;95054.47;;;17.11;35.74
30744;BME280;17486;46.738;7.622;2023-03-12T14:05:26;95097.81;;;17.50;34.93
30744;BME280;17486;46.738;7.622;2023-03-12T14:14:03;95095.47;;;17.80;34.62
30744;BME280;17486;46.738;7.622;2023-03-12T14:16:44;95089.84;;;18.17;35.02
30744;BME280;17486;46.738;7.622;2023-03-12T14:19:18;95071.25;;;18.51;35.06
30744;BME280;17486;46.738;7.622;2023-03-12T14:21:48;95041.59;;;18.80;32.39
30744;BME280;17486;46.738;7.622;2023-03-12T14:24:33;95008.00;;;18.93;33.15
30744;BME280;17486;46.738;7.622;2023-03-12T14:27:01;95031.13;;;19.40;32.56
30744;BME280;17486;46.738;7.622;2023-03-12T14:29:34;95048.13;;;19.77;32.87
30744;BME280;17486;46.738;7.622;2023-03-12T14:32:04;95046.38;;;20.16;32.14
30744;BME280;17486;46.738;7.622;2023-03-12T14:34:40;95032.16;;;20.37;31.15
30744;BME280;17486;46.738;7.622;2023-03-12T14:37:14;95056.84;;;20.85;30.54
30744;BME280;17486;46.738;7.622;2023-03-12T14:39:48;95060.22;;;21.15;29.71
30744;BME280;17486;46.738;7.622;2023-03-12T14:42:23;95048.91;;;21.23;29.45
30744;BME280;17486;46.738;7.622;2023-03-12T14:45:12;95056.94;;;21.31;28.83
30744;BME280;17486;46.738;7.622;2023-03-12T14:48:04;95030.31;;;21.32;29.00
30744;BME280;17486;46.738;7.622;2023-03-12T14:50:39;94994.00;;;21.07;28.88
30744;BME280;17486;46.738;7.622;2023-03-12T14:53:16;94967.56;;;21.07;28.88
30744;BME280;17486;46.738;7.622;2023-03-12T14:55:42;94980.25;;;21.03;28.43
30744;BME280;17486;46.738;7.622;2023-03-12T14:58:18;95020.34;;;21.26;28.37
30744;BME280;17486;46.738;7.622;2023-03-12T15:00:54;95004.09;;;21.21;28.51
30744;BME280;17486;46.738;7.622;2023-03-12T15:03:22;95017.72;;;21.26;28.52